Honey Creek, Illinois
Current Conditions -  °F | °C
As of 8:35 AM on Tuesday 21 Oct 2014 (Local Time) from KRPJ Reporting Station
Overcast Overcast  
Wind Chill:   Ceiling: 3800
Heat Index:   Visibility: 10mi
Dew Point:   Wind: 10mph
Humidity: 81%   Direction: 20°NNE
Pressure: 30.17"   Gusts: NA
Location:  41.9937°N, 89.1961°W
Report Text: KRPJ 211335Z AUTO 02009KT 10SM OVC038 08/05 A3017 RMK AO2 T00750045
Loading
Personal Weather Stations






























Interactive Weather Map
Tropical Storm Tracking
New forecast layout! Learn more

10-Day Weather Forecast

Advertisements
Track Severe Weather on mobile